Time;durP1;ratioP1;P1;durP2;ratioP2;P2;SDS_P1;SDS_P2;PMS_P1;PMS_P2;Temp;Humidity;BMP_temperature;BMP_pressure;BME280_temperature;BME280_humidity;BME280_pressure;Samples;Min_cycle;Max_cycle;Signal;HPM_P1;HPM_P2
2023/01/25 00:00:25;;;;;;;34.38;20.52;;;1.30;99.90;;;;;;5048703;28;20033;-71
2023/01/25 00:02:51;;;;;;;35.65;21.77;;;1.40;99.90;;;;;;5050196;28;20041;-70
2023/01/25 00:05:16;;;;;;;33.83;20.60;;;1.40;99.90;;;;;;5050124;28;20386;-70
2023/01/25 00:07:42;;;;;;;36.97;21.35;;;1.40;99.90;;;;;;5047151;28;20033;-71
2023/01/25 00:10:08;;;;;;;31.92;19.35;;;1.40;99.90;;;;;;5050128;28;20086;-70
2023/01/25 00:12:34;;;;;;;37.97;21.33;;;1.40;99.90;;;;;;5048698;28;20064;-70
2023/01/25 00:14:59;;;;;;;34.67;20.25;;;1.40;99.90;;;;;;5041057;28;20515;-71
2023/01/25 00:17:25;;;;;;;35.15;21.10;;;1.40;99.90;;;;;;5042641;28;20032;-71
2023/01/25 00:19:51;;;;;;;30.80;19.15;;;1.40;99.90;;;;;;5051447;28;20104;-70
2023/01/25 00:22:16;;;;;;;29.95;19.50;;;1.30;99.90;;;;;;5046960;28;20088;-70
2023/01/25 00:24:42;;;;;;;33.05;20.10;;;1.30;99.90;;;;;;5044694;28;20399;-70
2023/01/25 00:27:07;;;;;;;32.15;20.15;;;1.30;99.90;;;;;;5046065;28;20540;-70
2023/01/25 00:29:33;;;;;;;39.10;22.15;;;1.30;99.90;;;;;;5040381;28;20043;-70
2023/01/25 00:32:08;;;;;;;34.55;20.65;;;1.30;99.90;;;;;;5039738;28;20057;-70
2023/01/25 00:34:42;;;;;;;35.38;21.10;;;1.30;99.90;;;;;;5048130;28;20037;-71
2023/01/25 00:37:20;;;;;;;35.78;20.95;;;1.30;99.90;;;;;;5047810;28;20032;-70
2023/01/25 00:39:46;;;;;;;35.42;21.75;;;1.30;99.90;;;;;;5045420;28;20400;-70
2023/01/25 00:42:13;;;;;;;35.78;22.15;;;1.30;99.90;;;;;;5048503;28;20029;-71
2023/01/25 00:44:39;;;;;;;34.45;20.83;;;1.30;99.90;;;;;;5045794;28;20021;-70
2023/01/25 00:47:11;;;;;;;34.03;21.67;;;1.20;99.90;;;;;;5048779;28;20078;-70
2023/01/25 00:49:38;;;;;;;38.97;22.35;;;1.10;99.90;;;;;;5044692;28;20055;-70
2023/01/25 00:52:05;;;;;;;36.35;21.63;;;1.10;99.90;;;;;;5045727;28;20026;-70
2023/01/25 00:54:30;;;;;;;38.88;23.00;;;1.10;99.90;;;;;;5046781;28;20123;-70
2023/01/25 00:56:56;;;;;;;36.22;21.77;;;1.10;99.90;;;;;;5047143;28;20111;-70
2023/01/25 00:59:23;;;;;;;39.17;22.52;;;1.10;99.90;;;;;;5048679;28;20453;-70
2023/01/25 01:01:49;;;;;;;35.08;20.58;;;1.10;99.90;;;;;;5045177;28;20032;-70
2023/01/25 01:04:14;;;;;;;35.80;20.40;;;1.20;99.90;;;;;;5050151;28;20025;-70
2023/01/25 01:06:41;;;;;;;36.53;22.05;;;1.20;99.90;;;;;;5050219;28;20028;-71
2023/01/25 01:09:10;;;;;;;40.30;23.35;;;1.20;99.90;;;;;;5048021;28;20110;-70
2023/01/25 01:11:35;;;;;;;35.55;21.20;;;1.20;99.90;;;;;;5037394;28;20029;-70
2023/01/25 01:14:01;;;;;;;35.05;21.35;;;1.20;99.90;;;;;;5050050;28;20452;-70
2023/01/25 01:16:26;;;;;;;37.95;22.80;;;1.10;99.90;;;;;;5046172;28;20032;-70
2023/01/25 01:18:52;;;;;;;40.13;22.85;;;1.00;99.90;;;;;;5040753;28;20021;-70
2023/01/25 01:21:19;;;;;;;38.40;23.73;;;1.00;99.90;;;;;;5049647;28;20017;-70
2023/01/25 01:23:44;;;;;;;39.15;23.63;;;1.00;99.90;;;;;;5039065;28;20033;-70
2023/01/25 01:26:15;;;;;;;38.58;22.98;;;1.10;99.90;;;;;;5047230;28;20047;-70
2023/01/25 01:28:41;;;;;;;38.33;22.73;;;1.00;99.90;;;;;;5048363;28;20029;-70
2023/01/25 01:31:14;;;;;;;38.78;22.60;;;1.10;99.90;;;;;;5045340;28;20148;-70
2023/01/25 01:33:40;;;;;;;39.58;23.08;;;1.10;99.90;;;;;;5048190;28;20342;-69
2023/01/25 01:36:07;;;;;;;41.42;23.08;;;1.10;99.90;;;;;;5046470;28;20483;-70
2023/01/25 01:38:33;;;;;;;37.80;21.67;;;1.20;99.90;;;;;;5049157;28;20025;-70
2023/01/25 01:40:59;;;;;;;38.53;22.92;;;1.20;99.90;;;;;;5049507;28;20021;-70
2023/01/25 01:43:24;;;;;;;37.05;21.63;;;1.20;99.90;;;;;;5045023;28;20377;-70
2023/01/25 01:45:56;;;;;;;36.00;21.88;;;1.10;99.90;;;;;;5048318;28;20029;-70
2023/01/25 01:48:40;;;;;;;38.08;23.10;;;1.10;99.90;;;;;;5045537;28;20025;-70
2023/01/25 01:51:21;;;;;;;37.80;22.30;;;1.10;99.90;;;;;;5048482;28;20036;-70
2023/01/25 01:53:59;;;;;;;41.03;23.48;;;1.10;99.90;;;;;;5047987;28;20472;-69
2023/01/25 01:56:44;;;;;;;35.42;20.85;;;1.00;99.90;;;;;;5048655;28;20063;-71
2023/01/25 01:59:10;;;;;;;36.67;21.45;;;1.00;99.90;;;;;;5043235;28;20032;-70
2023/01/25 02:01:36;;;;;;;35.72;21.10;;;1.00;99.90;;;;;;5046264;28;20032;-70
2023/01/25 02:04:05;;;;;;;34.45;21.02;;;1.00;99.90;;;;;;5048227;28;20498;-70
2023/01/25 02:06:42;;;;;;;39.35;22.63;;;1.00;99.90;;;;;;5047420;28;20103;-70
2023/01/25 02:09:07;;;;;;;39.33;23.55;;;1.00;99.90;;;;;;5047984;28;20035;-70
2023/01/25 02:11:34;;;;;;;40.40;23.50;;;1.00;99.90;;;;;;5040098;28;20100;-70
2023/01/25 02:14:01;;;;;;;37.83;21.98;;;1.00;99.90;;;;;;5047833;28;20064;-70
2023/01/25 02:16:27;;;;;;;37.47;22.05;;;1.00;99.90;;;;;;5048632;28;20036;-71
2023/01/25 02:18:55;;;;;;;38.65;23.48;;;1.00;99.90;;;;;;5041521;28;20021;-70
2023/01/25 02:21:23;;;;;;;40.05;23.35;;;1.00;99.90;;;;;;5047266;28;20029;-72
2023/01/25 02:24:06;;;;;;;38.92;21.98;;;1.00;99.90;;;;;;5048224;28;20477;-70
2023/01/25 02:26:32;;;;;;;43.70;22.98;;;1.00;99.90;;;;;;5042003;28;20036;-69
2023/01/25 02:29:08;;;;;;;41.20;24.02;;;1.00;99.90;;;;;;5045663;28;20029;-70
2023/01/25 02:31:34;;;;;;;39.00;22.40;;;1.00;99.90;;;;;;5048488;28;20041;-70
2023/01/25 02:34:00;;;;;;;42.10;23.33;;;1.00;99.90;;;;;;5059499;28;20051;-70
2023/01/25 02:36:32;;;;;;;39.85;23.50;;;1.00;99.90;;;;;;5047920;28;20026;-70
2023/01/25 02:39:11;;;;;;;42.97;24.37;;;1.00;99.90;;;;;;5049488;28;20064;-70
2023/01/25 02:41:42;;;;;;;38.65;20.90;;;1.00;99.90;;;;;;5035754;28;20021;-70
2023/01/25 02:44:16;;;;;;;42.92;23.98;;;1.00;99.90;;;;;;5046097;28;20056;-70
2023/01/25 02:46:43;;;;;;;38.67;22.33;;;1.00;99.90;;;;;;5039644;28;20025;-70
2023/01/25 02:49:10;;;;;;;46.00;24.50;;;1.00;99.90;;;;;;5045449;28;20032;-70
2023/01/25 02:51:39;;;;;;;40.70;23.35;;;1.00;99.90;;;;;;5047867;28;20075;-70
2023/01/25 02:54:07;;;;;;;39.42;22.70;;;0.90;99.90;;;;;;5038020;28;20123;-70
2023/01/25 02:56:33;;;;;;;43.13;25.35;;;0.90;99.90;;;;;;5044641;28;20031;-70
2023/01/25 02:58:58;;;;;;;46.25;25.48;;;0.90;99.90;;;;;;5047771;28;20370;-70
2023/01/25 03:01:24;;;;;;;44.00;25.75;;;0.80;99.90;;;;;;5040890;28;20032;-69
2023/01/25 03:03:50;;;;;;;44.85;26.38;;;0.80;99.90;;;;;;5047203;28;20392;-70
2023/01/25 03:06:15;;;;;;;43.58;25.80;;;0.80;99.90;;;;;;5043147;28;20043;-70
2023/01/25 03:08:42;;;;;;;41.75;24.20;;;0.80;99.90;;;;;;5046229;28;20031;-70
2023/01/25 03:11:07;;;;;;;42.13;25.23;;;0.80;99.90;;;;;;5045305;28;20412;-70
2023/01/25 03:13:34;;;;;;;39.00;23.42;;;0.80;99.90;;;;;;5048313;28;20051;-70
2023/01/25 03:16:06;;;;;;;43.55;25.95;;;0.80;99.90;;;;;;5044551;28;20374;-70
2023/01/25 03:18:33;;;;;;;47.75;26.23;;;0.80;99.90;;;;;;5043505;28;20032;-70
2023/01/25 03:21:17;;;;;;;47.05;25.52;;;0.90;99.90;;;;;;5046621;28;20124;-70
2023/01/25 03:23:44;;;;;;;44.13;24.92;;;0.90;99.90;;;;;;5044189;28;20033;-70
2023/01/25 03:26:16;;;;;;;47.00;26.13;;;0.90;99.90;;;;;;5047504;28;20508;-70
2023/01/25 03:28:42;;;;;;;49.42;25.92;;;0.90;99.90;;;;;;5042777;28;20033;-70
2023/01/25 03:31:10;;;;;;;49.78;26.63;;;0.90;99.90;;;;;;5045160;28;20041;-70
2023/01/25 03:33:36;;;;;;;45.83;26.10;;;0.90;99.90;;;;;;5043947;28;20033;-70
2023/01/25 03:36:03;;;;;;;50.95;26.60;;;0.90;99.90;;;;;;5040860;28;20555;-70
2023/01/25 03:38:29;;;;;;;51.55;27.25;;;0.90;99.90;;;;;;5044972;28;20057;-70
2023/01/25 03:40:54;;;;;;;50.30;28.42;;;0.90;99.90;;;;;;5048079;28;20071;-70
2023/01/25 03:43:20;;;;;;;55.10;29.60;;;0.90;99.90;;;;;;5049795;28;20025;-70
2023/01/25 03:45:54;;;;;;;51.47;29.08;;;0.80;99.90;;;;;;5048981;28;20025;-70
2023/01/25 03:48:20;;;;;;;53.90;28.30;;;0.70;99.90;;;;;;5047735;28;20538;-70
2023/01/25 03:50:57;;;;;;;50.35;28.05;;;0.70;99.90;;;;;;5047795;28;20029;-70
2023/01/25 03:53:30;;;;;;;51.30;27.52;;;0.70;99.90;;;;;;5044222;28;20039;-70
2023/01/25 03:56:02;;;;;;;48.78;27.52;;;0.70;99.90;;;;;;5046670;28;20029;-70
2023/01/25 03:58:29;;;;;;;48.43;26.17;;;0.70;99.90;;;;;;5047824;28;20043;-70
2023/01/25 04:00:56;;;;;;;51.05;27.65;;;0.70;99.90;;;;;;5047035;28;20025;-70
2023/01/25 04:03:23;;;;;;;51.92;28.02;;;0.80;99.90;;;;;;5049065;28;20025;-70
2023/01/25 04:05:49;;;;;;;53.97;28.23;;;0.80;99.90;;;;;;5044902;28;20033;-70
2023/01/25 04:08:15;;;;;;;53.13;28.80;;;0.80;99.90;;;;;;5046813;28;20446;-70
2023/01/25 04:10:41;;;;;;;52.85;28.58;;;0.80;99.90;;;;;;5050516;28;20116;-70
2023/01/25 04:13:06;;;;;;;52.97;28.17;;;0.80;99.90;;;;;;5041388;28;20025;-70
2023/01/25 04:15:32;;;;;;;54.65;28.52;;;0.80;99.90;;;;;;5048695;28;20057;-70
2023/01/25 04:17:57;;;;;;;53.13;27.48;;;0.80;99.90;;;;;;5042792;28;20029;-70
2023/01/25 04:20:23;;;;;;;56.50;30.65;;;0.80;99.90;;;;;;5044064;28;20034;-70
2023/01/25 04:22:49;;;;;;;55.28;30.27;;;0.80;99.90;;;;;;5045341;28;20052;-70
2023/01/25 04:25:14;;;;;;;55.38;29.92;;;0.80;99.90;;;;;;5049022;28;20107;-70
2023/01/25 04:27:40;;;;;;;56.40;30.25;;;0.80;99.90;;;;;;5046502;28;20500;-70
2023/01/25 04:30:06;;;;;;;53.80;28.13;;;0.80;99.90;;;;;;5046437;28;20032;-70
2023/01/25 04:32:34;;;;;;;51.72;28.77;;;0.80;99.90;;;;;;5046675;28;20045;-70
2023/01/25 04:34:59;;;;;;;55.17;29.63;;;0.70;99.90;;;;;;5063684;28;20468;-70
2023/01/25 04:37:25;;;;;;;60.00;34.13;;;0.70;99.90;;;;;;5045176;28;20021;-70
2023/01/25 04:39:50;;;;;;;55.03;29.10;;;0.70;99.90;;;;;;5045321;28;20029;-70
2023/01/25 04:42:16;;;;;;;58.60;31.58;;;0.70;99.90;;;;;;5047316;28;20013;-70
2023/01/25 04:44:41;;;;;;;58.67;31.13;;;0.70;99.90;;;;;;5049953;28;20036;-70
2023/01/25 04:47:07;;;;;;;57.83;29.40;;;0.70;99.90;;;;;;5044846;28;20385;-70
2023/01/25 04:49:32;;;;;;;57.83;29.15;;;0.70;99.90;;;;;;5048332;28;20025;-70
2023/01/25 04:51:58;;;;;;;59.38;31.02;;;0.70;99.90;;;;;;5042108;28;20038;-70
2023/01/25 04:54:23;;;;;;;60.85;31.08;;;0.60;99.90;;;;;;5047107;28;20048;-70
2023/01/25 04:56:49;;;;;;;57.85;30.25;;;0.60;99.90;;;;;;5047421;28;20392;-70
2023/01/25 04:59:14;;;;;;;56.78;29.60;;;0.60;99.90;;;;;;5047231;28;20062;-70
2023/01/25 05:01:40;;;;;;;59.75;31.95;;;0.60;99.90;;;;;;5047832;28;20055;-70
2023/01/25 05:04:05;;;;;;;62.45;32.03;;;0.60;99.90;;;;;;5046793;28;20366;-70
2023/01/25 05:06:32;;;;;;;63.15;32.20;;;0.60;99.90;;;;;;5047384;28;20524;-70
2023/01/25 05:08:57;;;;;;;59.30;31.42;;;0.60;99.90;;;;;;5040536;28;20370;-70
2023/01/25 05:11:23;;;;;;;63.08;34.03;;;0.70;99.90;;;;;;5045352;28;20037;-70
2023/01/25 05:13:48;;;;;;;67.68;35.33;;;0.70;99.90;;;;;;5048668;28;20469;-69
2023/01/25 05:16:14;;;;;;;62.40;35.42;;;0.60;99.90;;;;;;5050456;28;20495;-70
2023/01/25 05:18:39;;;;;;;68.03;36.10;;;0.60;99.90;;;;;;5049892;28;20027;-70
2023/01/25 05:21:56;;;;;;;58.80;31.35;;;0.60;99.90;;;;;;5049684;28;20049;-70
2023/01/25 05:23:50;;;;;;;60.22;31.20;;;0.70;99.90;;;;;;5047551;28;20059;-70
2023/01/25 05:29:00;;;;;;;66.25;34.22;;;0.70;99.90;;;;;;5041747;28;20048;-70
2023/01/25 05:31:26;;;;;;;69.43;35.00;;;0.70;99.90;;;;;;5041435;28;20041;-70
2023/01/25 05:33:51;;;;;;;71.82;39.10;;;0.70;99.90;;;;;;5040243;28;20408;-70
2023/01/25 05:36:17;;;;;;;66.90;37.90;;;0.70;99.90;;;;;;5042682;28;20017;-70
2023/01/25 05:38:42;;;;;;;67.72;36.08;;;0.70;99.90;;;;;;5044125;28;20115;-70
2023/01/25 05:41:08;;;;;;;72.22;35.35;;;0.70;99.90;;;;;;5047475;28;20025;-70
2023/01/25 05:43:33;;;;;;;71.70;35.17;;;0.70;99.90;;;;;;5050136;28;20032;-69
2023/01/25 05:45:59;;;;;;;73.30;35.33;;;0.70;99.90;;;;;;5048554;28;20125;-70
2023/01/25 05:48:24;;;;;;;69.43;33.85;;;0.70;99.90;;;;;;5043786;28;20416;-70
2023/01/25 05:50:50;;;;;;;64.70;32.20;;;0.70;99.90;;;;;;5044105;28;20030;-70
2023/01/25 05:53:15;;;;;;;74.53;36.55;;;0.60;99.90;;;;;;5044145;28;20033;-70
2023/01/25 05:55:41;;;;;;;79.72;37.35;;;0.60;99.90;;;;;;5047256;28;20041;-70
2023/01/25 05:58:06;;;;;;;72.55;36.13;;;0.60;99.90;;;;;;5037820;28;20072;-70
2023/01/25 06:00:32;;;;;;;73.20;37.47;;;0.60;99.90;;;;;;5048821;28;20025;-70
2023/01/25 06:03:00;;;;;;;81.85;40.60;;;0.60;99.90;;;;;;5041373;28;20033;-70
2023/01/25 06:05:25;;;;;;;82.28;42.67;;;0.60;99.90;;;;;;5038431;28;20025;-70
2023/01/25 06:07:51;;;;;;;77.47;39.03;;;0.50;99.90;;;;;;5044958;28;20128;-70
2023/01/25 06:10:16;;;;;;;76.80;37.78;;;0.50;99.90;;;;;;5044308;28;20075;-70
2023/01/25 06:12:42;;;;;;;79.78;40.92;;;0.50;99.90;;;;;;5047718;28;20036;-70
2023/01/25 06:15:08;;;;;;;77.30;36.70;;;0.50;99.90;;;;;;5048932;28;20039;-70
2023/01/25 06:17:36;;;;;;;79.78;38.30;;;0.50;99.90;;;;;;5048947;28;20029;-70
2023/01/25 06:20:02;;;;;;;81.53;38.92;;;0.50;99.90;;;;;;5050292;28;20036;-70
2023/01/25 06:22:28;;;;;;;80.97;36.88;;;0.50;99.90;;;;;;5050861;28;20476;-70
2023/01/25 06:24:53;;;;;;;80.63;37.90;;;0.60;99.90;;;;;;5037380;28;20528;-70
2023/01/25 06:27:18;;;;;;;83.53;38.35;;;0.60;99.90;;;;;;5047082;28;20039;-70
2023/01/25 06:29:46;;;;;;;77.78;36.85;;;0.60;99.90;;;;;;5049209;28;20028;-70
2023/01/25 06:32:12;;;;;;;75.95;35.88;;;0.50;99.90;;;;;;5040776;28;20083;-70
2023/01/25 06:34:37;;;;;;;78.60;36.28;;;0.50;99.90;;;;;;5047296;28;20451;-70
2023/01/25 06:37:03;;;;;;;78.30;35.92;;;0.50;99.90;;;;;;5050135;28;20091;-70
2023/01/25 06:39:28;;;;;;;83.95;39.05;;;0.50;99.90;;;;;;5044596;28;20025;-70
2023/01/25 06:41:55;;;;;;;86.97;39.22;;;0.40;99.90;;;;;;5047105;28;20396;-70
2023/01/25 06:44:21;;;;;;;83.00;37.08;;;0.50;99.90;;;;;;5038680;28;20028;-70
2023/01/25 06:46:56;;;;;;;88.25;39.90;;;0.50;99.90;;;;;;5048468;28;20416;-70
2023/01/25 06:49:22;;;;;;;85.68;39.45;;;0.50;99.90;;;;;;5042614;28;20025;-70
2023/01/25 06:51:47;;;;;;;82.35;37.75;;;0.50;99.90;;;;;;5042675;28;20362;-70
2023/01/25 06:54:13;;;;;;;90.70;39.38;;;0.50;99.90;;;;;;5041040;28;20120;-70
2023/01/25 06:56:38;;;;;;;89.95;40.60;;;0.50;99.90;;;;;;5046126;28;20029;-70
2023/01/25 06:59:04;;;;;;;89.28;39.38;;;0.50;99.90;;;;;;5036580;28;20055;-70
2023/01/25 07:01:29;;;;;;;87.85;39.22;;;0.40;99.90;;;;;;5048209;28;20032;-70
2023/01/25 07:03:57;;;;;;;80.40;36.53;;;0.40;99.90;;;;;;5049689;28;20033;-70
2023/01/25 07:06:25;;;;;;;89.75;39.35;;;0.40;99.90;;;;;;5045477;28;20049;-70
2023/01/25 07:08:53;;;;;;;88.18;39.83;;;0.40;99.90;;;;;;5049978;28;20029;-70
2023/01/25 07:11:18;;;;;;;89.57;38.83;;;0.20;99.90;;;;;;5052786;28;20035;-70
2023/01/25 07:13:45;;;;;;;87.10;38.30;;;0.10;99.90;;;;;;5051983;28;20041;-70
2023/01/25 07:16:14;;;;;;;87.55;39.10;;;0.20;99.90;;;;;;5047807;28;20135;-70
2023/01/25 07:18:41;;;;;;;87.03;37.78;;;0.20;99.90;;;;;;5048532;28;20427;-70
2023/01/25 07:21:19;;;;;;;91.57;39.30;;;0.20;99.90;;;;;;5046860;28;20606;-70
2023/01/25 07:23:45;;;;;;;89.07;38.47;;;0.30;99.90;;;;;;5051324;28;20032;-70
2023/01/25 07:26:19;;;;;;;89.07;39.40;;;0.30;99.90;;;;;;5049318;28;20369;-70
2023/01/25 07:28:46;;;;;;;86.32;39.83;;;0.30;99.90;;;;;;5045865;28;20423;-70
2023/01/25 07:31:11;;;;;;;86.07;38.15;;;0.30;99.90;;;;;;5047433;28;20152;-70
2023/01/25 07:33:37;;;;;;;82.53;36.70;;;0.30;99.90;;;;;;5043423;28;20117;-70
2023/01/25 07:36:05;;;;;;;83.45;37.53;;;0.30;99.90;;;;;;5039823;28;20037;-70
2023/01/25 07:38:31;;;;;;;88.50;38.45;;;0.30;99.90;;;;;;5044647;28;20020;-71
2023/01/25 07:40:59;;;;;;;85.22;38.45;;;0.30;99.90;;;;;;5053535;28;20037;-71
2023/01/25 07:43:25;;;;;;;85.35;36.90;;;0.30;99.90;;;;;;5050823;28;20021;-70
2023/01/25 07:45:52;;;;;;;84.55;37.22;;;0.30;99.90;;;;;;5053065;28;20469;-70
2023/01/25 07:48:19;;;;;;;93.38;39.92;;;0.20;99.90;;;;;;5050820;28;20033;-70
2023/01/25 07:50:45;;;;;;;84.35;36.97;;;0.20;99.90;;;;;;5051758;28;20029;-70
2023/01/25 07:53:12;;;;;;;77.53;36.47;;;0.20;99.90;;;;;;5046121;28;20084;-70
2023/01/25 07:55:38;;;;;;;83.75;38.50;;;0.20;99.90;;;;;;5051097;28;20071;-70
2023/01/25 07:58:03;;;;;;;81.22;36.42;;;0.20;99.90;;;;;;5052387;28;20115;-70
2023/01/25 08:00:29;;;;;;;85.97;38.00;;;0.20;99.90;;;;;;5050989;28;20036;-70
2023/01/25 08:02:55;;;;;;;82.03;38.08;;;0.20;99.90;;;;;;5052328;28;20135;-71
2023/01/25 08:05:20;;;;;;;85.85;37.40;;;0.20;99.90;;;;;;5047163;28;20598;-70
2023/01/25 08:07:47;;;;;;;82.55;35.72;;;0.20;99.90;;;;;;5050500;28;20052;-70
2023/01/25 08:10:13;;;;;;;81.07;33.85;;;0.30;99.90;;;;;;5052549;28;20032;-70
2023/01/25 08:12:38;;;;;;;78.47;35.92;;;0.30;99.90;;;;;;5039610;28;20100;-71
2023/01/25 08:15:04;;;;;;;83.45;38.00;;;0.30;99.90;;;;;;5046282;28;20041;-70
2023/01/25 08:17:33;;;;;;;80.50;38.03;;;0.30;99.90;;;;;;5042503;28;20036;-70
2023/01/25 08:20:00;;;;;;;83.85;37.28;;;0.30;99.90;;;;;;5041231;28;20025;-70
2023/01/25 08:22:27;;;;;;;80.72;36.38;;;0.30;99.90;;;;;;5052369;28;20017;-70
2023/01/25 08:24:53;;;;;;;84.82;38.95;;;0.40;99.90;;;;;;5041125;28;20028;-70
2023/01/25 08:27:18;;;;;;;78.93;36.75;;;0.40;99.90;;;;;;5050802;28;20021;-70
2023/01/25 08:29:44;;;;;;;82.15;37.97;;;0.40;99.90;;;;;;5050942;28;20476;-70
2023/01/25 08:32:10;;;;;;;78.28;34.53;;;0.30;99.90;;;;;;5039634;28;20052;-70
2023/01/25 08:34:36;;;;;;;75.00;32.47;;;0.20;99.90;;;;;;5051269;28;20088;-70
2023/01/25 08:37:01;;;;;;;79.88;36.83;;;0.20;99.90;;;;;;5050966;28;20029;-70
2023/01/25 08:39:27;;;;;;;78.53;35.42;;;0.20;99.90;;;;;;5050842;28;20029;-70
2023/01/25 08:41:53;;;;;;;83.97;38.45;;;0.20;99.90;;;;;;5052583;28;20459;-70
2023/01/25 08:44:22;;;;;;;77.95;35.75;;;0.20;99.90;;;;;;5048991;28;20051;-70
2023/01/25 08:46:48;;;;;;;80.15;36.10;;;0.20;99.90;;;;;;5052677;28;20397;-70
2023/01/25 08:49:14;;;;;;;75.30;33.45;;;0.30;99.90;;;;;;5047974;28;20040;-70
2023/01/25 08:51:40;;;;;;;82.38;38.53;;;0.30;99.90;;;;;;5050967;28;20029;-70
2023/01/25 08:54:07;;;;;;;89.75;40.50;;;0.30;99.90;;;;;;5051387;28;20047;-70
2023/01/25 08:56:38;;;;;;;91.38;40.38;;;0.30;99.90;;;;;;5051909;28;20120;-70
2023/01/25 08:59:21;;;;;;;86.93;38.83;;;0.30;99.90;;;;;;5049927;28;20506;-70
2023/01/25 09:01:47;;;;;;;84.18;38.15;;;0.30;99.90;;;;;;5049545;28;20021;-70
2023/01/25 09:04:12;;;;;;;80.60;37.15;;;0.30;99.90;;;;;;5050166;28;20487;-70
2023/01/25 09:06:38;;;;;;;82.90;37.15;;;0.40;99.90;;;;;;5052281;28;20049;-70
2023/01/25 09:09:03;;;;;;;81.97;37.58;;;0.40;99.90;;;;;;5049999;28;20044;-70
2023/01/25 09:11:32;;;;;;;87.28;39.47;;;0.30;99.90;;;;;;5049900;28;20746;-70
2023/01/25 09:13:58;;;;;;;83.35;38.33;;;0.30;99.90;;;;;;5047439;28;20047;-70
2023/01/25 09:16:27;;;;;;;70.90;34.30;;;0.20;99.90;;;;;;5041674;28;20021;-70
2023/01/25 09:18:54;;;;;;;80.97;37.42;;;0.20;99.90;;;;;;5048981;28;20021;-70
2023/01/25 09:21:20;;;;;;;91.82;40.55;;;0.10;99.90;;;;;;5062346;28;20484;-70
2023/01/25 09:23:50;;;;;;;87.65;40.08;;;0.00;99.90;;;;;;5043331;28;20384;-70
2023/01/25 09:26:16;;;;;;;91.68;40.05;;;0.00;99.90;;;;;;5035389;28;20370;-71
2023/01/25 09:28:46;;;;;;;90.05;38.75;;;0.10;99.90;;;;;;5040730;28;20036;-70
2023/01/25 09:31:12;;;;;;;90.85;39.47;;;0.10;99.90;;;;;;5040483;28;20044;-70
2023/01/25 09:33:39;;;;;;;84.72;37.80;;;0.20;99.90;;;;;;5041632;28;20029;-70
2023/01/25 09:36:05;;;;;;;86.30;38.38;;;0.30;99.90;;;;;;5044145;28;20036;-70
2023/01/25 09:38:31;;;;;;;81.05;36.88;;;0.30;99.90;;;;;;5047041;28;20055;-70
2023/01/25 09:41:03;;;;;;;82.07;38.03;;;0.40;99.90;;;;;;5047354;28;20028;-70
2023/01/25 09:43:47;;;;;;;78.72;35.53;;;0.50;99.90;;;;;;5046160;28;20384;-70
2023/01/25 09:46:25;;;;;;;84.60;37.75;;;0.50;99.90;;;;;;5039099;28;20064;-70
2023/01/25 09:49:11;;;;;;;84.90;36.90;;;0.50;99.90;;;;;;5042193;28;20060;-70
2023/01/25 09:51:58;;;;;;;89.57;38.47;;;0.50;99.90;;;;;;5045942;28;20052;-71
2023/01/25 09:54:27;;;;;;;88.65;37.45;;;0.40;99.90;;;;;;5046683;28;21006;-70
2023/01/25 09:56:53;;;;;;;82.88;37.50;;;0.40;99.90;;;;;;5047887;28;20485;-70
2023/01/25 09:59:25;;;;;;;84.30;37.70;;;0.30;99.90;;;;;;5047060;28;20044;-70
2023/01/25 10:02:01;;;;;;;83.95;38.92;;;0.30;99.90;;;;;;5047458;28;20493;-70
2023/01/25 10:04:29;;;;;;;87.75;37.85;;;0.40;99.90;;;;;;5045961;28;20039;-70
2023/01/25 10:07:02;;;;;;;88.60;38.80;;;0.40;99.90;;;;;;5044930;28;20037;-70
2023/01/25 10:10:12;;;;;;;88.40;37.97;;;0.50;99.90;;;;;;5040388;28;20036;-70
2023/01/25 10:12:38;;;;;;;78.88;34.28;;;0.50;99.90;;;;;;5027736;28;20048;-70
2023/01/25 10:15:18;;;;;;;83.25;36.80;;;0.60;99.90;;;;;;5046779;28;20044;-71
2023/01/25 10:17:45;;;;;;;84.05;37.03;;;0.60;99.90;;;;;;5046561;28;20028;-70
2023/01/25 10:20:41;;;;;;;92.22;38.58;;;0.60;99.90;;;;;;5043362;28;20492;-70
2023/01/25 10:23:40;;;;;;;85.65;37.92;;;0.60;99.90;;;;;;5039738;28;20991;-70
2023/01/25 10:26:25;;;;;;;86.47;38.42;;;0.70;99.90;;;;;;5047680;28;20372;-70
2023/01/25 10:29:09;;;;;;;87.95;38.40;;;0.70;99.90;;;;;;5048489;28;20397;-70
2023/01/25 10:31:52;;;;;;;80.47;34.85;;;0.70;99.90;;;;;;5045590;28;20045;-70
2023/01/25 10:34:28;;;;;;;80.93;35.97;;;0.60;99.90;;;;;;5046292;28;20060;-71
2023/01/25 10:36:56;;;;;;;86.97;38.00;;;0.60;99.90;;;;;;5048027;28;20459;-70
2023/01/25 10:39:22;;;;;;;80.22;36.25;;;0.60;99.90;;;;;;5045679;28;20036;-70
2023/01/25 10:41:54;;;;;;;85.30;37.25;;;0.60;99.90;;;;;;5047801;28;20032;-71
2023/01/25 10:44:20;;;;;;;87.75;38.92;;;0.60;99.90;;;;;;5043981;28;20029;-70
2023/01/25 10:47:00;;;;;;;92.53;40.20;;;0.50;99.90;;;;;;5038726;28;20496;-70
2023/01/25 10:49:37;;;;;;;92.28;38.92;;;0.50;99.90;;;;;;5051128;28;20016;-69
2023/01/25 10:52:21;;;;;;;88.68;38.47;;;0.50;99.90;;;;;;5046167;28;20040;-70
2023/01/25 10:55:00;;;;;;;93.20;40.85;;;0.50;99.90;;;;;;5051407;28;20057;-70
2023/01/25 10:57:26;;;;;;;89.00;38.50;;;0.40;99.90;;;;;;5053535;28;20033;-70
2023/01/25 10:59:51;;;;;;;92.13;39.50;;;0.40;99.90;;;;;;5043232;28;20071;-70
2023/01/25 11:02:40;;;;;;;96.88;39.88;;;0.40;99.90;;;;;;5048713;28;20025;-70
2023/01/25 11:05:34;;;;;;;88.45;40.40;;;0.50;99.90;;;;;;5048408;28;20033;-70
2023/01/25 11:08:32;;;;;;;89.65;38.15;;;0.50;99.90;;;;;;5048800;28;20032;-71
2023/01/25 11:10:59;;;;;;;94.20;40.30;;;0.60;99.90;;;;;;5051361;28;20785;-71
2023/01/25 11:13:31;;;;;;;94.80;40.80;;;0.70;99.90;;;;;;5051272;28;20052;-71
2023/01/25 11:16:03;;;;;;;92.80;40.90;;;0.70;99.90;;;;;;5053927;28;20074;-71
2023/01/25 11:18:53;;;;;;;96.82;41.22;;;0.70;99.90;;;;;;5052779;28;20021;-71
2023/01/25 11:21:22;;;;;;;88.80;38.70;;;0.80;99.90;;;;;;5049159;28;20056;-71
2023/01/25 11:24:02;;;;;;;84.28;38.90;;;0.80;99.90;;;;;;5049955;28;20082;-71
2023/01/25 11:26:28;;;;;;;88.90;38.40;;;0.80;99.90;;;;;;5051366;28;20444;-71
2023/01/25 11:29:10;;;;;;;94.60;40.42;;;0.80;99.90;;;;;;5052753;28;20466;-71
2023/01/25 11:31:35;;;;;;;87.55;38.60;;;0.80;99.90;;;;;;5042373;28;20284;-70
2023/01/25 11:34:01;;;;;;;86.03;37.17;;;0.90;99.90;;;;;;5045437;28;20033;-71
2023/01/25 11:36:48;;;;;;;82.95;36.05;;;0.90;99.90;;;;;;5044092;28;20029;-70
2023/01/25 11:39:52;;;;;;;87.40;38.13;;;1.00;99.90;;;;;;5041989;28;20079;-71
2023/01/25 11:42:50;;;;;;;83.38;37.65;;;1.00;99.90;;;;;;5050973;28;20025;-70
2023/01/25 11:46:00;;;;;;;91.53;38.85;;;1.00;99.90;;;;;;5053437;28;20029;-71
2023/01/25 11:49:15;;;;;;;86.25;36.70;;;1.00;99.90;;;;;;4983600;28;20061;-70
2023/01/25 11:52:17;;;;;;;87.38;37.00;;;1.00;99.90;;;;;;4956762;28;20222;-71
2023/01/25 11:55:12;;;;;;;86.13;38.20;;;0.90;99.90;;;;;;5046123;28;20454;-71
2023/01/25 11:58:03;;;;;;;90.22;38.42;;;0.90;99.90;;;;;;5046286;28;20349;-71
2023/01/25 12:00:38;;;;;;;86.30;37.10;;;0.90;99.90;;;;;;5059646;28;20587;-71
2023/01/25 12:03:36;;;;;;;83.47;34.58;;;0.90;99.90;;;;;;5051988;28;20048;-71
2023/01/25 12:06:07;;;;;;;85.80;37.50;;;0.90;99.90;;;;;;5050287;28;20063;-71
2023/01/25 12:09:02;;;;;;;91.20;38.25;;;0.90;99.90;;;;;;5051573;28;20017;-71
2023/01/25 12:12:07;;;;;;;89.97;38.10;;;0.90;99.90;;;;;;4998959;28;20038;-71
2023/01/25 12:14:45;;;;;;;94.28;40.20;;;1.00;99.90;;;;;;5038707;28;20049;-71
2023/01/25 12:17:36;;;;;;;90.70;37.65;;;1.00;99.90;;;;;;5051967;28;20021;-71
2023/01/25 12:20:52;;;;;;;95.05;38.70;;;1.00;99.90;;;;;;5050434;28;20086;-71
2023/01/25 12:23:46;;;;;;;98.72;41.58;;;0.90;99.90;;;;;;5027429;28;20056;-71
2023/01/25 12:26:21;;;;;;;100.00;40.92;;;0.90;99.90;;;;;;5051190;28;20037;-71
2023/01/25 12:28:53;;;;;;;92.70;39.53;;;0.90;99.90;;;;;;5052337;28;20017;-71
2023/01/25 12:31:35;;;;;;;88.32;37.47;;;0.80;99.90;;;;;;5049574;28;20065;-71
2023/01/25 12:34:12;;;;;;;91.50;38.10;;;0.90;99.90;;;;;;5043388;28;20086;-70
2023/01/25 12:36:47;;;;;;;85.45;36.17;;;0.90;99.90;;;;;;5051450;28;20033;-70
2023/01/25 12:39:28;;;;;;;94.30;39.28;;;0.80;99.90;;;;;;5049735;28;20025;-70
2023/01/25 12:42:01;;;;;;;92.97;38.88;;;0.80;99.90;;;;;;5053694;28;20372;-70
2023/01/25 12:44:36;;;;;;;91.95;38.80;;;0.80;99.90;;;;;;5046619;28;20029;-70
2023/01/25 12:47:39;;;;;;;97.28;39.95;;;0.70;99.90;;;;;;5052681;28;20385;-70
2023/01/25 12:50:23;;;;;;;98.88;40.22;;;0.80;99.90;;;;;;5046014;28;20025;-70
2023/01/25 12:52:53;;;;;;;99.32;40.88;;;0.80;99.90;;;;;;5043630;28;20044;-70
2023/01/25 12:55:19;;;;;;;100.97;42.47;;;0.80;99.90;;;;;;5047014;28;20115;-70